Time;durP1;ratioP1;P1;durP2;ratioP2;P2;SDS_P1;SDS_P2;PMS_P1;PMS_P2;Temp;Humidity;BMP_temperature;BMP_pressure;BME280_temperature;BME280_humidity;BME280_pressure;Samples;Min_cycle;Max_cycle;Signal;HPM_P1;HPM_P2
2024/02/15 00:01:04;;;;;;;;;;;;;;;;;;5012660;28;20554;-62
2024/02/15 00:03:31;;;;;;;;;;;;;;;;;;5008746;28;19947;-63
2024/02/15 00:05:57;;;;;;;;;;;;;;;;;;5009465;28;19929;-63
2024/02/15 00:08:24;;;;;;;;;;;;;;;;;;5011593;28;19935;-62
2024/02/15 00:10:50;;;;;;;;;;;;;;;;;;5007607;28;19922;-62
2024/02/15 00:13:16;;;;;;;;;;;;;;;;;;5012581;28;19926;-62
2024/02/15 00:15:41;;;;;;;;;;;;;;;;;;4990573;28;20004;-62
2024/02/15 00:18:07;;;;;;;;;;;;;;;;;;5008871;28;19980;-62
2024/02/15 00:20:33;;;;;;;;;;;;;;;;;;5002300;28;19932;-62
2024/02/15 00:22:59;;;;;;;;;;;;;;;;;;5010772;28;20359;-62
2024/02/15 00:25:25;;;;;;;;;;;;;;;;;;5001155;28;20463;-62
2024/02/15 00:27:51;;;;;;;;;;;;;;;;;;5027060;28;19936;-63
2024/02/15 00:30:17;;;;;;;;;;;;;;;;;;5020699;28;19925;-63
2024/02/15 00:32:46;;;;;;;;;;;;;;;;;;5030267;28;19921;-63
2024/02/15 00:35:13;;;;;;;;;;;;;;;;;;5019015;28;20400;-63
2024/02/15 00:37:38;;;;;;;;;;;;;;;;;;5013854;28;19936;-63
2024/02/15 00:40:04;;;;;;;;;;;;;;;;;;5022352;28;19926;-62
2024/02/15 00:42:33;;;;;;;;;;;;;;;;;;5023506;28;20426;-62
2024/02/15 00:44:59;;;;;;;;;;;;;;;;;;5023194;28;19932;-62
2024/02/15 00:47:25;;;;;;;;;;;;;;;;;;5013081;28;19925;-62
2024/02/15 00:49:51;;;;;;;;;;;;;;;;;;5019950;28;19925;-62
2024/02/15 00:52:20;;;;;;;;;;;;;;;;;;5012613;28;19921;-61
2024/02/15 00:54:46;;;;;;;;;;;;;;;;;;5016469;28;20402;-61
2024/02/15 00:57:12;;;;;;;;;;;;;;;;;;5023436;28;19924;-61
2024/02/15 00:59:37;;;;;;;;;;;;;;;;;;5001719;28;19929;-62
2024/02/15 01:02:05;;;;;;;;;;;;;;;;;;5028524;28;19940;-62
2024/02/15 01:04:31;;;;;;;;;;;;;;;;;;5026512;28;20036;-62
2024/02/15 01:06:56;;;;;;;;;;;;;;;;;;5010775;28;20016;-62
2024/02/15 01:09:22;;;;;;;;;;;;;;;;;;5029188;28;20055;-62
2024/02/15 01:11:49;;;;;;;;;;;;;;;;;;5016355;28;19925;-62
2024/02/15 01:14:15;;;;;;;;;;;;;;;;;;5016439;28;19926;-62
2024/02/15 01:16:41;;;;;;;;;;;;;;;;;;5020883;28;19928;-62
2024/02/15 01:19:07;;;;;;;;;;;;;;;;;;5031513;28;19921;-62
2024/02/15 01:21:33;;;;;;;;;;;;;;;;;;5019022;28;20024;-62
2024/02/15 01:24:00;;;;;;;;;;;;;;;;;;5023747;28;19978;-62
2024/02/15 01:26:26;;;;;;;;;;;;;;;;;;5021190;28;19933;-62
2024/02/15 01:28:52;;;;;;;;;;;;;;;;;;5033319;28;20019;-62
2024/02/15 01:31:18;;;;;;;;;;;;;;;;;;5013974;28;20067;-62
2024/02/15 01:33:45;;;;;;;;;;;;;;;;;;5019681;28;20410;-62
2024/02/15 01:36:11;;;;;;;;;;;;;;;;;;5024547;28;20298;-62
2024/02/15 01:38:37;;;;;;;;;;;;;;;;;;5022312;28;19932;-62
2024/02/15 01:41:03;;;;;;;;;;;;;;;;;;5030926;28;19928;-62
2024/02/15 01:43:29;;;;;;;;;;;;;;;;;;5028431;28;20051;-62
2024/02/15 01:45:54;;;;;;;;;;;;;;;;;;5012492;28;20047;-62
2024/02/15 01:48:20;;;;;;;;;;;;;;;;;;5010504;28;19925;-63
2024/02/15 01:50:47;;;;;;;;;;;;;;;;;;5014105;28;19937;-62
2024/02/15 01:53:13;;;;;;;;;;;;;;;;;;5009991;28;19921;-61
2024/02/15 01:55:39;;;;;;;;;;;;;;;;;;5026027;28;19921;-62
2024/02/15 01:58:05;;;;;;;;;;;;;;;;;;5022536;28;20290;-62
2024/02/15 02:00:31;;;;;;;;;;;;;;;;;;5014537;28;19922;-62
2024/02/15 02:03:02;;;;;;;;;;;;;;;;;;5022658;28;19922;-62
2024/02/15 02:05:29;;;;;;;;;;;;;;;;;;5021320;28;19925;-62
2024/02/15 02:07:59;;;;;;;;;;;;;;;;;;5007577;28;19929;-62
2024/02/15 02:10:25;;;;;;;;;;;;;;;;;;5017466;28;20381;-62
2024/02/15 02:12:50;;;;;;;;;;;;;;;;;;5019983;28;19928;-62
2024/02/15 02:15:16;;;;;;;;;;;;;;;;;;5010975;28;19976;-62
2024/02/15 02:17:42;;;;;;;;;;;;;;;;;;5012683;28;19984;-62
2024/02/15 02:20:10;;;;;;;;;;;;;;;;;;5012335;28;19975;-62
2024/02/15 02:22:36;;;;;;;;;;;;;;;;;;5008598;28;19987;-62
2024/02/15 02:25:03;;;;;;;;;;;;;;;;;;5015622;28;19928;-62
2024/02/15 02:27:29;;;;;;;;;;;;;;;;;;5031190;28;19971;-62
2024/02/15 02:29:56;;;;;;;;;;;;;;;;;;5028989;28;20286;-62
2024/02/15 02:32:22;;;;;;;;;;;;;;;;;;5021304;28;19929;-62
2024/02/15 02:34:48;;;;;;;;;;;;;;;;;;5028459;28;19921;-62
2024/02/15 02:37:14;;;;;;;;;;;;;;;;;;5026945;28;19928;-62
2024/02/15 02:39:41;;;;;;;;;;;;;;;;;;5010167;28;20000;-62
2024/02/15 02:42:08;;;;;;;;;;;;;;;;;;5021785;28;19925;-62
2024/02/15 02:44:34;;;;;;;;;;;;;;;;;;5026454;28;20004;-62
2024/02/15 02:47:00;;;;;;;;;;;;;;;;;;5023671;28;19928;-62
2024/02/15 02:49:26;;;;;;;;;;;;;;;;;;5015880;28;19933;-62
2024/02/15 02:51:52;;;;;;;;;;;;;;;;;;5014783;28;20330;-62
2024/02/15 02:54:18;;;;;;;;;;;;;;;;;;5019391;28;19926;-62
2024/02/15 02:56:45;;;;;;;;;;;;;;;;;;5017199;28;19921;-62
2024/02/15 02:59:11;;;;;;;;;;;;;;;;;;5015850;28;19932;-62
2024/02/15 03:01:36;;;;;;;;;;;;;;;;;;5022905;28;20411;-62
2024/02/15 03:04:02;;;;;;;;;;;;;;;;;;5026344;28;19921;-62
2024/02/15 03:06:28;;;;;;;;;;;;;;;;;;5030433;28;19925;-62
2024/02/15 03:08:54;;;;;;;;;;;;;;;;;;5021167;28;19933;-62
2024/02/15 03:11:20;;;;;;;;;;;;;;;;;;5016184;28;19921;-62
2024/02/15 03:13:46;;;;;;;;;;;;;;;;;;5013238;28;19975;-62
2024/02/15 03:16:12;;;;;;;;;;;;;;;;;;5021677;28;19921;-62
2024/02/15 03:18:38;;;;;;;;;;;;;;;;;;5023962;28;20356;-62
2024/02/15 03:21:04;;;;;;;;;;;;;;;;;;5029589;28;19921;-62
2024/02/15 03:23:33;;;;;;;;;;;;;;;;;;5028505;28;20330;-62
2024/02/15 03:25:59;;;;;;;;;;;;;;;;;;5013242;28;19925;-62
2024/02/15 03:28:25;;;;;;;;;;;;;;;;;;5031642;28;19936;-62
2024/02/15 03:30:52;;;;;;;;;;;;;;;;;;5027862;28;19922;-62
2024/02/15 03:33:18;;;;;;;;;;;;;;;;;;5028149;28;19932;-62
2024/02/15 03:35:44;;;;;;;;;;;;;;;;;;5028836;28;20439;-63
2024/02/15 03:38:12;;;;;;;;;;;;;;;;;;5030891;28;20011;-63
2024/02/15 03:40:40;;;;;;;;;;;;;;;;;;5018676;28;19922;-63
2024/02/15 03:43:06;;;;;;;;;;;;;;;;;;5013103;28;19987;-63
2024/02/15 03:45:32;;;;;;;;;;;;;;;;;;5025886;28;20032;-63
2024/02/15 03:47:58;;;;;;;;;;;;;;;;;;5022077;28;20036;-63
2024/02/15 03:50:24;;;;;;;;;;;;;;;;;;5022363;28;19927;-63
2024/02/15 03:52:50;;;;;;;;;;;;;;;;;;5024581;28;20427;-63
2024/02/15 03:55:16;;;;;;;;;;;;;;;;;;5031511;28;19936;-63
2024/02/15 03:57:45;;;;;;;;;;;;;;;;;;5025777;28;19921;-63
2024/02/15 04:00:15;;;;;;;;;;;;;;;;;;4994634;28;20015;-63
2024/02/15 04:02:41;;;;;;;;;;;;;;;;;;5008386;28;20371;-63
2024/02/15 04:05:07;;;;;;;;;;;;;;;;;;5025121;28;19936;-63
2024/02/15 04:07:33;;;;;;;;;;;;;;;;;;5033149;28;19925;-63
2024/02/15 04:10:00;;;;;;;;;;;;;;;;;;5024151;28;20015;-63
2024/02/15 04:12:26;;;;;;;;;;;;;;;;;;5023496;28;20382;-63
2024/02/15 04:14:54;;;;;;;;;;;;;;;;;;5009052;28;19940;-63
2024/02/15 04:17:21;;;;;;;;;;;;;;;;;;5021668;28;20007;-63
2024/02/15 04:19:47;;;;;;;;;;;;;;;;;;5028144;28;20286;-63
2024/02/15 04:22:16;;;;;;;;;;;;;;;;;;5026283;28;19921;-63
2024/02/15 04:24:41;;;;;;;;;;;;;;;;;;5034235;28;19960;-63
2024/02/15 04:27:14;;;;;;;;;;;;;;;;;;5030963;28;20010;-63
2024/02/15 04:29:44;;;;;;;;;;;;;;;;;;5019282;28;19967;-63
2024/02/15 04:32:10;;;;;;;;;;;;;;;;;;5018866;28;20067;-63
2024/02/15 04:34:36;;;;;;;;;;;;;;;;;;4994891;28;20307;-63
2024/02/15 04:37:06;;;;;;;;;;;;;;;;;;5023370;28;19928;-63
2024/02/15 04:39:32;;;;;;;;;;;;;;;;;;5019279;28;19933;-63
2024/02/15 04:41:58;;;;;;;;;;;;;;;;;;5014151;28;19925;-63
2024/02/15 04:44:27;;;;;;;;;;;;;;;;;;5025296;28;19929;-63
2024/02/15 04:46:53;;;;;;;;;;;;;;;;;;5017563;28;19932;-63
2024/02/15 04:49:19;;;;;;;;;;;;;;;;;;5033947;28;19925;-63
2024/02/15 04:51:45;;;;;;;;;;;;;;;;;;5018414;28;19928;-63
2024/02/15 04:54:13;;;;;;;;;;;;;;;;;;5013211;28;20382;-63
2024/02/15 04:56:39;;;;;;;;;;;;;;;;;;5025477;28;20017;-63
2024/02/15 04:59:08;;;;;;;;;;;;;;;;;;5027042;28;20004;-63
2024/02/15 05:01:34;;;;;;;;;;;;;;;;;;5014309;28;19922;-63
2024/02/15 05:04:03;;;;;;;;;;;;;;;;;;5028581;28;19975;-63
2024/02/15 05:06:30;;;;;;;;;;;;;;;;;;5013510;28;20506;-63
2024/02/15 05:08:57;;;;;;;;;;;;;;;;;;5030323;28;19925;-63
2024/02/15 05:11:23;;;;;;;;;;;;;;;;;;5030474;28;19929;-63
2024/02/15 05:13:50;;;;;;;;;;;;;;;;;;5015034;28;19929;-63
2024/02/15 05:16:16;;;;;;;;;;;;;;;;;;5022907;28;20020;-63
2024/02/15 05:18:42;;;;;;;;;;;;;;;;;;5011555;28;20020;-63
2024/02/15 05:21:09;;;;;;;;;;;;;;;;;;5029845;28;19951;-63
2024/02/15 05:23:35;;;;;;;;;;;;;;;;;;5021278;28;19931;-63
2024/02/15 05:26:01;;;;;;;;;;;;;;;;;;5029419;28;19925;-63
2024/02/15 05:28:27;;;;;;;;;;;;;;;;;;5026980;28;20016;-63
2024/02/15 05:30:54;;;;;;;;;;;;;;;;;;5012557;28;19948;-63
2024/02/15 05:33:21;;;;;;;;;;;;;;;;;;5012100;28;20015;-61
2024/02/15 05:35:49;;;;;;;;;;;;;;;;;;5018583;28;19955;-62
2024/02/15 05:38:17;;;;;;;;;;;;;;;;;;5023773;28;19929;-62
2024/02/15 05:40:43;;;;;;;;;;;;;;;;;;5030013;28;19932;-62
2024/02/15 05:43:08;;;;;;;;;;;;;;;;;;5026403;28;20272;-61
2024/02/15 05:45:36;;;;;;;;;;;;;;;;;;5021881;28;19921;-62
2024/02/15 05:48:02;;;;;;;;;;;;;;;;;;5017275;28;19926;-62
2024/02/15 05:50:29;;;;;;;;;;;;;;;;;;5012413;28;19922;-62
2024/02/15 05:52:56;;;;;;;;;;;;;;;;;;5012447;28;19927;-62
2024/02/15 05:55:22;;;;;;;;;;;;;;;;;;5017682;28;20009;-62
2024/02/15 05:57:48;;;;;;;;;;;;;;;;;;5018704;28;20354;-62
2024/02/15 06:00:15;;;;;;;;;;;;;;;;;;5018302;28;19927;-62
2024/02/15 06:02:41;;;;;;;;;;;;;;;;;;5019983;28;20334;-62
2024/02/15 06:05:07;;;;;;;;;;;;;;;;;;5027509;28;19925;-61
2024/02/15 06:07:33;;;;;;;;;;;;;;;;;;5019276;28;19921;-61
2024/02/15 06:10:02;;;;;;;;;;;;;;;;;;5029347;28;20382;-61
2024/02/15 06:12:28;;;;;;;;;;;;;;;;;;5016017;28;20028;-61
2024/02/15 06:14:54;;;;;;;;;;;;;;;;;;5012527;28;19961;-61
2024/02/15 06:17:20;;;;;;;;;;;;;;;;;;5008693;28;20068;-62
2024/02/15 06:19:46;;;;;;;;;;;;;;;;;;5020287;28;20399;-62
2024/02/15 06:22:12;;;;;;;;;;;;;;;;;;5027163;28;19929;-62
2024/02/15 06:24:39;;;;;;;;;;;;;;;;;;4996204;28;19933;-62
2024/02/15 06:27:05;;;;;;;;;;;;;;;;;;5031578;28;19925;-62
2024/02/15 06:40:30;;;;;;;;;;;;;;;;;;5003024;28;21121;-62
2024/02/15 06:42:56;;;;;;;;;;;;;;;;;;5028808;28;20394;-62
2024/02/15 06:45:22;;;;;;;;;;;;;;;;;;5019244;28;19925;-62
2024/02/15 06:47:49;;;;;;;;;;;;;;;;;;5008685;28;20559;-62
2024/02/15 06:50:16;;;;;;;;;;;;;;;;;;5009388;28;20397;-63
2024/02/15 06:52:42;;;;;;;;;;;;;;;;;;5005099;28;20005;-63
2024/02/15 06:55:08;;;;;;;;;;;;;;;;;;5008953;28;20024;-61
2024/02/15 06:57:39;;;;;;;;;;;;;;;;;;5011216;28;20482;-62
2024/02/15 07:00:09;;;;;;;;;;;;;;;;;;5009349;28;20234;-62
2024/02/15 07:02:35;;;;;;;;;;;;;;;;;;5008509;28;19922;-62
2024/02/15 07:05:02;;;;;;;;;;;;;;;;;;5011061;28;19921;-62
2024/02/15 07:07:28;;;;;;;;;;;;;;;;;;5010918;28;19928;-62
2024/02/15 07:09:54;;;;;;;;;;;;;;;;;;5014163;28;19922;-63
2024/02/15 07:12:21;;;;;;;;;;;;;;;;;;4996706;28;19961;-63
2024/02/15 07:14:47;;;;;;;;;;;;;;;;;;5013409;28;20330;-63
2024/02/15 07:17:13;;;;;;;;;;;;;;;;;;5012995;28;19972;-63
2024/02/15 07:19:39;;;;;;;;;;;;;;;;;;5014637;28;19972;-63
2024/02/15 07:22:05;;;;;;;;;;;;;;;;;;5014845;28;19921;-63
2024/02/15 07:24:32;;;;;;;;;;;;;;;;;;5014835;28;19925;-63
2024/02/15 07:26:58;;;;;;;;;;;;;;;;;;5014908;28;20479;-63
2024/02/15 07:29:25;;;;;;;;;;;;;;;;;;5014781;28;19929;-63
2024/02/15 07:31:51;;;;;;;;;;;;;;;;;;5014386;28;20495;-63
2024/02/15 07:34:17;;;;;;;;;;;;;;;;;;5012773;28;19926;-63
2024/02/15 07:36:43;;;;;;;;;;;;;;;;;;5012964;28;20323;-63
2024/02/15 07:39:12;;;;;;;;;;;;;;;;;;5014653;28;20389;-63
2024/02/15 07:41:38;;;;;;;;;;;;;;;;;;5024730;28;20369;-63
2024/02/15 07:44:04;;;;;;;;;;;;;;;;;;5026331;28;19921;-63
2024/02/15 07:46:29;;;;;;;;;;;;;;;;;;5021489;28;19928;-63
2024/02/15 07:48:56;;;;;;;;;;;;;;;;;;5018863;28;19933;-63
2024/02/15 07:51:22;;;;;;;;;;;;;;;;;;5019284;28;19925;-63
2024/02/15 07:53:49;;;;;;;;;;;;;;;;;;5013040;28;20378;-63
2024/02/15 07:56:15;;;;;;;;;;;;;;;;;;5020695;28;19921;-63
2024/02/15 07:58:47;;;;;;;;;;;;;;;;;;5026751;28;19921;-63
2024/02/15 08:01:13;;;;;;;;;;;;;;;;;;5022782;28;19948;-63
2024/02/15 08:03:45;;;;;;;;;;;;;;;;;;5013059;28;19929;-63
2024/02/15 08:06:12;;;;;;;;;;;;;;;;;;5003951;28;19925;-63
2024/02/15 08:08:38;;;;;;;;;;;;;;;;;;5014216;28;20330;-63
2024/02/15 08:11:04;;;;;;;;;;;;;;;;;;5013590;28;19984;-63
2024/02/15 08:13:30;;;;;;;;;;;;;;;;;;5020218;28;19928;-63
2024/02/15 08:15:56;;;;;;;;;;;;;;;;;;5012933;28;19934;-62
2024/02/15 08:18:22;;;;;;;;;;;;;;;;;;5020936;28;20024;-63
2024/02/15 08:20:48;;;;;;;;;;;;;;;;;;5020368;28;19922;-63
2024/02/15 08:23:14;;;;;;;;;;;;;;;;;;5019746;28;19921;-63
2024/02/15 08:25:41;;;;;;;;;;;;;;;;;;5020547;28;19942;-63
2024/02/15 08:28:07;;;;;;;;;;;;;;;;;;5010090;28;19929;-61
2024/02/15 08:30:33;;;;;;;;;;;;;;;;;;5023778;28;20422;-61
2024/02/15 08:32:59;;;;;;;;;;;;;;;;;;5033067;28;19968;-61
2024/02/15 08:35:25;;;;;;;;;;;;;;;;;;5023509;28;19960;-62
2024/02/15 08:37:52;;;;;;;;;;;;;;;;;;5030997;28;19964;-62
2024/02/15 08:40:24;;;;;;;;;;;;;;;;;;5019090;28;19993;-62
2024/02/15 08:42:50;;;;;;;;;;;;;;;;;;5030730;28;20381;-62
2024/02/15 08:45:16;;;;;;;;;;;;;;;;;;5024981;28;19929;-62
2024/02/15 08:47:42;;;;;;;;;;;;;;;;;;5002885;28;19929;-62
2024/02/15 08:50:11;;;;;;;;;;;;;;;;;;5012722;28;20008;-62
2024/02/15 08:52:40;;;;;;;;;;;;;;;;;;5011842;28;19926;-62
2024/02/15 08:55:06;;;;;;;;;;;;;;;;;;5008775;28;20466;-62
2024/02/15 08:57:32;;;;;;;;;;;;;;;;;;5010271;28;19925;-61
2024/02/15 08:59:58;;;;;;;;;;;;;;;;;;5013571;28;20017;-61
2024/02/15 09:02:24;;;;;;;;;;;;;;;;;;5013786;28;20004;-61
2024/02/15 09:04:50;;;;;;;;;;;;;;;;;;5014705;28;20005;-61
2024/02/15 09:07:16;;;;;;;;;;;;;;;;;;5029700;28;19984;-61
2024/02/15 09:09:42;;;;;;;;;;;;;;;;;;5016713;28;19930;-62
2024/02/15 09:12:08;;;;;;;;;;;;;;;;;;5021295;28;19956;-62
2024/02/15 09:14:34;;;;;;;;;;;;;;;;;;5019832;28;19933;-62
2024/02/15 09:17:00;;;;;;;;;;;;;;;;;;5021490;28;19927;-62
2024/02/15 09:19:26;;;;;;;;;;;;;;;;;;5010391;28;19928;-62
2024/02/15 09:21:51;;;;;;;;;;;;;;;;;;5024634;28;19925;-62
2024/02/15 09:24:17;;;;;;;;;;;;;;;;;;5011847;28;19926;-62
2024/02/15 09:26:44;;;;;;;;;;;;;;;;;;5000729;28;19934;-62
2024/02/15 09:29:10;;;;;;;;;;;;;;;;;;4990002;28;19937;-63
2024/02/15 09:31:36;;;;;;;;;;;;;;;;;;4991057;28;19929;-63
2024/02/15 09:34:06;;;;;;;;;;;;;;;;;;4982277;28;19929;-63
2024/02/15 09:36:32;;;;;;;;;;;;;;;;;;4994520;28;19932;-63
2024/02/15 09:38:58;;;;;;;;;;;;;;;;;;4994306;28;19925;-63
2024/02/15 09:41:24;;;;;;;;;;;;;;;;;;4991737;28;19964;-63
2024/02/15 09:43:51;;;;;;;;;;;;;;;;;;4982849;28;19926;-63
2024/02/15 09:46:17;;;;;;;;;;;;;;;;;;4989023;28;19922;-63
2024/02/15 09:48:43;;;;;;;;;;;;;;;;;;4992352;28;20411;-63
2024/02/15 09:51:09;;;;;;;;;;;;;;;;;;4991242;28;19929;-63
2024/02/15 09:53:35;;;;;;;;;;;;;;;;;;4992948;28;19922;-63
2024/02/15 09:56:04;;;;;;;;;;;;;;;;;;4984518;28;20415;-63
2024/02/15 09:58:33;;;;;;;;;;;;;;;;;;4986248;28;19928;-63
2024/02/15 10:00:59;;;;;;;;;;;;;;;;;;4992074;28;19926;-62
2024/02/15 10:03:25;;;;;;;;;;;;;;;;;;4975089;28;19921;-63
2024/02/15 10:05:51;;;;;;;;;;;;;;;;;;4992618;28;19925;-63
2024/02/15 10:08:17;;;;;;;;;;;;;;;;;;4992537;28;19938;-63
2024/02/15 10:10:43;;;;;;;;;;;;;;;;;;4974441;28;20430;-62
2024/02/15 10:13:09;;;;;;;;;;;;;;;;;;4989696;28;19929;-63
2024/02/15 10:15:35;;;;;;;;;;;;;;;;;;4992235;28;19921;-63
2024/02/15 10:18:01;;;;;;;;;;;;;;;;;;4991723;28;19953;-63
2024/02/15 10:20:27;;;;;;;;;;;;;;;;;;4958138;28;19925;-63
2024/02/15 10:22:54;;;;;;;;;;;;;;;;;;4991929;28;19929;-63
2024/02/15 10:25:22;;;;;;;;;;;;;;;;;;5001462;28;19926;-63
2024/02/15 10:27:48;;;;;;;;;;;;;;;;;;5010849;28;20391;-63
2024/02/15 10:30:15;;;;;;;;;;;;;;;;;;5008838;28;20012;-63
2024/02/15 10:32:40;;;;;;;;;;;;;;;;;;5011443;28;19956;-63
2024/02/15 10:35:06;;;;;;;;;;;;;;;;;;5010478;28;19953;-63
2024/02/15 10:37:32;;;;;;;;;;;;;;;;;;5011206;28;20315;-63
2024/02/15 10:39:58;;;;;;;;;;;;;;;;;;5033308;23;20024;-64
2024/02/15 10:42:24;;;;;;;;;;;;;;;;;;5028032;28;20019;-65
2024/02/15 10:44:50;;;;;;;;;;;;;;;;;;5021050;28;20380;-64
2024/02/15 10:47:16;;;;;;;;;;;;;;;;;;5010882;28;20008;-64
2024/02/15 10:49:42;;;;;;;;;;;;;;;;;;5027874;28;19925;-64
2024/02/15 10:52:09;;;;;;;;;;;;;;;;;;5031631;28;19936;-64
2024/02/15 10:54:36;;;;;;;;;;;;;;;;;;5031890;28;20023;-64
2024/02/15 10:57:02;;;;;;;;;;;;;;;;;;5020022;28;20028;-65
2024/02/15 10:59:29;;;;;;;;;;;;;;;;;;5028010;28;20436;-64
2024/02/15 11:01:55;;;;;;;;;;;;;;;;;;5023758;28;19952;-64
2024/02/15 11:04:32;;;;;;;;;;;;;;;;;;5029945;28;20032;-64
2024/02/15 11:06:58;;;;;;;;;;;;;;;;;;5029007;28;19964;-64
2024/02/15 11:09:29;;;;;;;;;;;;;;;;;;5019955;28;19925;-64
2024/02/15 11:11:55;;;;;;;;;;;;;;;;;;5024151;28;19925;-64
2024/02/15 11:14:21;;;;;;;;;;;;;;;;;;5017978;28;19922;-64
2024/02/15 11:16:47;;;;;;;;;;;;;;;;;;5024257;28;19929;-64
2024/02/15 11:19:13;;;;;;;;;;;;;;;;;;5028303;28;20604;-64
2024/02/15 11:21:38;;;;;;;;;;;;;;;;;;5030472;28;19921;-64
2024/02/15 11:24:06;;;;;;;;;;;;;;;;;;5030257;28;19921;-64
2024/02/15 11:26:32;;;;;;;;;;;;;;;;;;5027352;28;19925;-63
2024/02/15 11:28:58;;;;;;;;;;;;;;;;;;5020870;28;19928;-63
2024/02/15 11:31:24;;;;;;;;;;;;;;;;;;5017392;28;19936;-63
2024/02/15 11:33:50;;;;;;;;;;;;;;;;;;5025585;28;20581;-63
2024/02/15 11:36:16;;;;;;;;;;;;;;;;;;5029709;28;19922;-63
2024/02/15 11:38:45;;;;;;;;;;;;;;;;;;5027862;28;19925;-62
2024/02/15 11:41:11;;;;;;;;;;;;;;;;;;5042390;28;19923;-63
2024/02/15 11:43:40;;;;;;;;;;;;;;;;;;5044093;28;20019;-63
2024/02/15 11:46:06;;;;;;;;;;;;;;;;;;5038642;28;19927;-63
2024/02/15 11:48:33;;;;;;;;;;;;;;;;;;5048511;28;19932;-63
2024/02/15 11:50:59;;;;;;;;;;;;;;;;;;5026758;28;19979;-63
2024/02/15 11:53:25;;;;;;;;;;;;;;;;;;5031797;28;20291;-63
2024/02/15 11:55:51;;;;;;;;;;;;;;;;;;5034850;28;19967;-63
2024/02/15 11:58:21;;;;;;;;;;;;;;;;;;5033823;28;19966;-63
2024/02/15 12:19:59;;;;;;;;;;;;;;;;;;5035165;28;19924;-63
2024/02/15 12:22:25;;;;;;;;;;;;;;;;;;5034676;28;19924;-63
2024/02/15 12:24:51;;;;;;;;;;;;;;;;;;5053467;28;19963;-63
2024/02/15 12:27:17;;;;;;;;;;;;;;;;;;5054085;28;19928;-63
2024/02/15 12:29:43;;;;;;;;;;;;;;;;;;5019812;28;19925;-63
2024/02/15 12:32:09;;;;;;;;;;;;;;;;;;5032875;28;19925;-63
2024/02/15 12:34:37;;;;;;;;;;;;;;;;;;5051771;28;19921;-63
2024/02/15 12:37:04;;;;;;;;;;;;;;;;;;5053625;28;19921;-63
2024/02/15 12:39:31;;;;;;;;;;;;;;;;;;5052039;28;20309;-63
2024/02/15 12:41:57;;;;;;;;;;;;;;;;;;5045837;28;19933;-63
2024/02/15 12:44:24;;;;;;;;;;;;;;;;;;5025853;28;19928;-63
2024/02/15 12:46:50;;;;;;;;;;;;;;;;;;5046138;28;19952;-63
2024/02/15 12:49:16;;;;;;;;;;;;;;;;;;5034108;28;20033;-63
2024/02/15 12:51:42;;;;;;;;;;;;;;;;;;5051888;28;20074;-63
2024/02/15 12:54:08;;;;;;;;;;;;;;;;;;5053753;28;19968;-63
2024/02/15 12:56:34;;;;;;;;;;;;;;;;;;5046567;28;19927;-63
2024/02/15 12:59:00;;;;;;;;;;;;;;;;;;5046693;28;20000;-63
2024/02/15 13:01:28;;;;;;;;;;;;;;;;;;5047450;28;19928;-63
2024/02/15 13:03:54;;;;;;;;;;;;;;;;;;5034436;28;20728;-63
2024/02/15 13:06:23;;;;;;;;;;;;;;;;;;5030818;28;20007;-63
2024/02/15 13:08:49;;;;;;;;;;;;;;;;;;5048943;28;19931;-63
2024/02/15 13:11:16;;;;;;;;;;;;;;;;;;5050954;28;19924;-64
2024/02/15 13:13:42;;;;;;;;;;;;;;;;;;5051922;28;19927;-64
2024/02/15 13:16:08;;;;;;;;;;;;;;;;;;5050956;28;20416;-63
2024/02/15 13:18:34;;;;;;;;;;;;;;;;;;5050421;28;19964;-63
2024/02/15 13:21:00;;;;;;;;;;;;;;;;;;5051504;28;19929;-63
2024/02/15 13:23:26;;;;;;;;;;;;;;;;;;5033906;28;19971;-63
2024/02/15 13:25:52;;;;;;;;;;;;;;;;;;5033622;28;19932;-63
2024/02/15 13:28:18;;;;;;;;;;;;;;;;;;5049622;28;20328;-63
2024/02/15 13:30:45;;;;;;;;;;;;;;;;;;5053125;28;19931;-63
2024/02/15 13:33:11;;;;;;;;;;;;;;;;;;5042240;28;19921;-63
2024/02/15 13:35:37;;;;;;;;;;;;;;;;;;5031721;28;19931;-63
2024/02/15 13:38:03;;;;;;;;;;;;;;;;;;5048507;28;19972;-63
2024/02/15 13:40:30;;;;;;;;;;;;;;;;;;5052664;28;19975;-63
2024/02/15 13:42:58;;;;;;;;;;;;;;;;;;5052192;28;19925;-63
2024/02/15 13:45:24;;;;;;;;;;;;;;;;;;5040981;28;19921;-63
2024/02/15 13:47:50;;;;;;;;;;;;;;;;;;5032899;28;19925;-63
2024/02/15 13:50:17;;;;;;;;;;;;;;;;;;5032683;28;19933;-63
2024/02/15 13:52:43;;;;;;;;;;;;;;;;;;5044332;28;20271;-63
2024/02/15 13:55:11;;;;;;;;;;;;;;;;;;5034004;28;20313;-63
2024/02/15 13:57:37;;;;;;;;;;;;;;;;;;5052368;28;19928;-63
2024/02/15 14:00:05;;;;;;;;;;;;;;;;;;5047213;28;20244;-64
2024/02/15 14:02:31;;;;;;;;;;;;;;;;;;5050994;28;19928;-63
2024/02/15 14:04:57;;;;;;;;;;;;;;;;;;5052397;28;19924;-63
2024/02/15 14:07:23;;;;;;;;;;;;;;;;;;5048906;28;19924;-63
2024/02/15 14:09:49;;;;;;;;;;;;;;;;;;5051775;28;19925;-63
2024/02/15 14:12:15;;;;;;;;;;;;;;;;;;5051401;28;19975;-63
2024/02/15 14:14:42;;;;;;;;;;;;;;;;;;5033804;28;20019;-63
2024/02/15 14:17:09;;;;;;;;;;;;;;;;;;5046686;28;20357;-63
2024/02/15 14:19:35;;;;;;;;;;;;;;;;;;5051045;28;19925;-63
2024/02/15 14:22:01;;;;;;;;;;;;;;;;;;5051951;28;19931;-63
2024/02/15 14:24:27;;;;;;;;;;;;;;;;;;5051902;28;19925;-63
2024/02/15 14:26:53;;;;;;;;;;;;;;;;;;5039115;28;19925;-63
2024/02/15 14:29:22;;;;;;;;;;;;;;;;;;5051317;28;20358;-63
2024/02/15 14:34:36;;;;;;;;;;;;;;;;;;5050886;28;19924;-63
2024/02/15 14:37:02;;;;;;;;;;;;;;;;;;5051604;28;19925;-63
2024/02/15 14:39:30;;;;;;;;;;;;;;;;;;5051655;28;19960;-63
2024/02/15 14:41:56;;;;;;;;;;;;;;;;;;5051103;28;19931;-63
2024/02/15 14:44:23;;;;;;;;;;;;;;;;;;5051453;28;20271;-63
2024/02/15 14:46:49;;;;;;;;;;;;;;;;;;5047507;28;19920;-63
2024/02/15 14:49:16;;;;;;;;;;;;;;;;;;5050738;28;19927;-63
2024/02/15 14:51:42;;;;;;;;;;;;;;;;;;5050873;28;19975;-63
2024/02/15 14:54:08;;;;;;;;;;;;;;;;;;5050611;28;19928;-63
2024/02/15 14:56:34;;;;;;;;;;;;;;;;;;5050325;28;19921;-63
2024/02/15 14:59:00;;;;;;;;;;;;;;;;;;5050479;28;19931;-63
2024/02/15 15:01:27;;;;;;;;;;;;;;;;;;5028067;28;20270;-63
2024/02/15 15:03:54;;;;;;;;;;;;;;;;;;5050056;28;19964;-63
2024/02/15 15:14:34;;;;;;;;;;;;;;;;;;5047561;28;19932;-64
2024/02/15 15:17:00;;;;;;;;;;;;;;;;;;5043130;28;20267;-64
2024/02/15 15:19:26;;;;;;;;;;;;;;;;;;5050276;28;19925;-64
2024/02/15 15:21:53;;;;;;;;;;;;;;;;;;5016049;28;19948;-64
2024/02/15 15:24:19;;;;;;;;;;;;;;;;;;5050146;28;19920;-65
2024/02/15 15:26:45;;;;;;;;;;;;;;;;;;5050227;28;19982;-64
2024/02/15 15:29:11;;;;;;;;;;;;;;;;;;5050807;28;20320;-64
2024/02/15 15:31:38;;;;;;;;;;;;;;;;;;5032933;28;20046;-64
2024/02/15 15:34:04;;;;;;;;;;;;;;;;;;5054264;28;19948;-65
2024/02/15 15:36:30;;;;;;;;;;;;;;;;;;5054099;28;19932;-64
2024/02/15 15:38:57;;;;;;;;;;;;;;;;;;5045475;28;19922;-64
2024/02/15 15:41:23;;;;;;;;;;;;;;;;;;5041177;28;19954;-64
2024/02/15 15:43:50;;;;;;;;;;;;;;;;;;5047937;28;19925;-65
2024/02/15 15:46:16;;;;;;;;;;;;;;;;;;5048452;28;20036;-65
2024/02/15 15:48:43;;;;;;;;;;;;;;;;;;5035033;28;20015;-65
2024/02/15 15:51:09;;;;;;;;;;;;;;;;;;5047775;28;20637;-65
2024/02/15 15:53:35;;;;;;;;;;;;;;;;;;5053371;28;19974;-65
2024/02/15 15:56:01;;;;;;;;;;;;;;;;;;5048842;28;20015;-65
2024/02/15 15:58:27;;;;;;;;;;;;;;;;;;5053257;28;20007;-65
2024/02/15 16:00:54;;;;;;;;;;;;;;;;;;5050280;28;19924;-65
2024/02/15 16:03:22;;;;;;;;;;;;;;;;;;5027759;28;20421;-65
2024/02/15 16:05:48;;;;;;;;;;;;;;;;;;5030511;28;20378;-65
2024/02/15 16:08:14;;;;;;;;;;;;;;;;;;5050461;28;19966;-65
2024/02/15 16:10:40;;;;;;;;;;;;;;;;;;5051403;28;19929;-65
2024/02/15 16:13:06;;;;;;;;;;;;;;;;;;5031380;28;20003;-65
2024/02/15 16:15:32;;;;;;;;;;;;;;;;;;5049099;28;19937;-65
2024/02/15 16:17:58;;;;;;;;;;;;;;;;;;5025177;28;20023;-65
2024/02/15 16:20:24;;;;;;;;;;;;;;;;;;5047448;28;20027;-65
2024/02/15 16:22:51;;;;;;;;;;;;;;;;;;5042454;28;19999;-65
2024/02/15 16:25:17;;;;;;;;;;;;;;;;;;5050661;28;19936;-65
2024/02/15 16:27:43;;;;;;;;;;;;;;;;;;5016076;28;20001;-65
2024/02/15 16:30:10;;;;;;;;;;;;;;;;;;5050554;28;20292;-65
2024/02/15 16:32:36;;;;;;;;;;;;;;;;;;5050713;28;19924;-65
2024/02/15 16:35:09;;;;;;;;;;;;;;;;;;5046081;28;19970;-65
2024/02/15 16:37:35;;;;;;;;;;;;;;;;;;5051036;28;20305;-65
2024/02/15 16:40:01;;;;;;;;;;;;;;;;;;5033380;28;19925;-65
2024/02/15 16:42:28;;;;;;;;;;;;;;;;;;5050834;28;20401;-65
2024/02/15 16:44:56;;;;;;;;;;;;;;;;;;5051601;28;19952;-65
2024/02/15 16:47:22;;;;;;;;;;;;;;;;;;5051334;28;20011;-65
2024/02/15 16:49:48;;;;;;;;;;;;;;;;;;5049848;28;20054;-65
2024/02/15 16:52:16;;;;;;;;;;;;;;;;;;5015075;28;19967;-65
2024/02/15 16:54:43;;;;;;;;;;;;;;;;;;5031595;28;19924;-65
2024/02/15 16:57:08;;;;;;;;;;;;;;;;;;5013322;28;19925;-65
2024/02/15 16:59:34;;;;;;;;;;;;;;;;;;5031184;28;20383;-65
2024/02/15 17:02:01;;;;;;;;;;;;;;;;;;5037950;28;19931;-65
2024/02/15 17:04:27;;;;;;;;;;;;;;;;;;5048727;28;20398;-65
2024/02/15 17:06:53;;;;;;;;;;;;;;;;;;5029008;28;19925;-65
2024/02/15 17:09:19;;;;;;;;;;;;;;;;;;5051235;28;19927;-65
2024/02/15 17:11:46;;;;;;;;;;;;;;;;;;5035500;28;19937;-65
2024/02/15 17:14:14;;;;;;;;;;;;;;;;;;5030368;28;19925;-65
2024/02/15 17:16:42;;;;;;;;;;;;;;;;;;5030786;28;19983;-65
2024/02/15 17:19:08;;;;;;;;;;;;;;;;;;5050056;28;20366;-65
2024/02/15 17:21:34;;;;;;;;;;;;;;;;;;5050621;28;19982;-65